sensor_id;sensor_type;location;lat;lon;timestamp;P1;durP1;ratioP1;P2;durP2;ratioP2
74335;SDS011;62755;-33.398;-70.572;2023-03-20T00:01:57;11.13;;;2.53;;
74335;SDS011;62755;-33.398;-70.572;2023-03-20T00:04:47;8.25;;;2.35;;
74335;SDS011;62755;-33.398;-70.572;2023-03-20T00:07:36;6.70;;;2.50;;
74335;SDS011;62755;-33.398;-70.572;2023-03-20T00:10:26;8.68;;;2.40;;
74335;SDS011;62755;-33.398;-70.572;2023-03-20T00:13:23;9.13;;;1.92;;
74335;SDS011;62755;-33.398;-70.572;2023-03-20T00:16:16;6.05;;;1.88;;
74335;SDS011;62755;-33.398;-70.572;2023-03-20T00:19:05;8.60;;;2.25;;
74335;SDS011;62755;-33.398;-70.572;2023-03-20T00:22:01;12.40;;;1.98;;
74335;SDS011;62755;-33.398;-70.572;2023-03-20T00:24:51;3.38;;;1.50;;
74335;SDS011;62755;-33.398;-70.572;2023-03-20T00:27:41;8.55;;;1.65;;
74335;SDS011;62755;-33.398;-70.572;2023-03-20T00:30:31;6.78;;;1.50;;
74335;SDS011;62755;-33.398;-70.572;2023-03-20T00:33:22;8.80;;;1.88;;
74335;SDS011;62755;-33.398;-70.572;2023-03-20T00:36:13;10.48;;;1.80;;
74335;SDS011;62755;-33.398;-70.572;2023-03-20T00:39:03;8.75;;;1.90;;
74335;SDS011;62755;-33.398;-70.572;2023-03-20T00:41:52;8.48;;;1.67;;
74335;SDS011;62755;-33.398;-70.572;2023-03-20T00:44:47;8.25;;;1.63;;
74335;SDS011;62755;-33.398;-70.572;2023-03-20T00:47:38;5.80;;;1.27;;
74335;SDS011;62755;-33.398;-70.572;2023-03-20T00:50:30;6.00;;;1.83;;
74335;SDS011;62755;-33.398;-70.572;2023-03-20T00:53:19;3.35;;;1.23;;
74335;SDS011;62755;-33.398;-70.572;2023-03-20T00:56:12;4.35;;;1.00;;
74335;SDS011;62755;-33.398;-70.572;2023-03-20T00:59:19;7.40;;;1.35;;
74335;SDS011;62755;-33.398;-70.572;2023-03-20T01:02:10;11.38;;;1.25;;
74335;SDS011;62755;-33.398;-70.572;2023-03-20T01:05:00;8.07;;;1.30;;
74335;SDS011;62755;-33.398;-70.572;2023-03-20T01:07:52;6.47;;;0.90;;
74335;SDS011;62755;-33.398;-70.572;2023-03-20T01:10:42;9.27;;;1.30;;
74335;SDS011;62755;-33.398;-70.572;2023-03-20T01:13:33;6.05;;;1.30;;
74335;SDS011;62755;-33.398;-70.572;2023-03-20T01:16:25;10.45;;;5.32;;
74335;SDS011;62755;-33.398;-70.572;2023-03-20T01:19:15;5.95;;;1.30;;
74335;SDS011;62755;-33.398;-70.572;2023-03-20T01:22:04;6.60;;;1.10;;
74335;SDS011;62755;-33.398;-70.572;2023-03-20T01:24:56;5.97;;;1.13;;
74335;SDS011;62755;-33.398;-70.572;2023-03-20T01:27:46;3.38;;;1.02;;
74335;SDS011;62755;-33.398;-70.572;2023-03-20T01:30:38;3.47;;;0.90;;
74335;SDS011;62755;-33.398;-70.572;2023-03-20T01:33:27;6.35;;;1.02;;
74335;SDS011;62755;-33.398;-70.572;2023-03-20T01:36:16;5.68;;;1.00;;
74335;SDS011;62755;-33.398;-70.572;2023-03-20T01:39:09;5.57;;;1.17;;
74335;SDS011;62755;-33.398;-70.572;2023-03-20T01:42:00;5.70;;;0.98;;
74335;SDS011;62755;-33.398;-70.572;2023-03-20T01:44:50;4.10;;;1.00;;
74335;SDS011;62755;-33.398;-70.572;2023-03-20T01:47:40;7.70;;;1.20;;
74335;SDS011;62755;-33.398;-70.572;2023-03-20T01:50:30;5.45;;;1.35;;
74335;SDS011;62755;-33.398;-70.572;2023-03-20T01:53:20;5.70;;;1.10;;
74335;SDS011;62755;-33.398;-70.572;2023-03-20T01:56:13;7.22;;;1.20;;
74335;SDS011;62755;-33.398;-70.572;2023-03-20T01:59:08;10.73;;;1.50;;
74335;SDS011;62755;-33.398;-70.572;2023-03-20T02:02:01;7.05;;;1.40;;
74335;SDS011;62755;-33.398;-70.572;2023-03-20T02:04:51;10.57;;;2.15;;
74335;SDS011;62755;-33.398;-70.572;2023-03-20T02:07:44;3.30;;;1.13;;
74335;SDS011;62755;-33.398;-70.572;2023-03-20T02:10:38;4.57;;;1.13;;
74335;SDS011;62755;-33.398;-70.572;2023-03-20T02:13:28;7.53;;;1.42;;
74335;SDS011;62755;-33.398;-70.572;2023-03-20T02:16:20;4.45;;;1.20;;
74335;SDS011;62755;-33.398;-70.572;2023-03-20T02:19:12;3.28;;;1.30;;
74335;SDS011;62755;-33.398;-70.572;2023-03-20T02:22:18;7.88;;;1.50;;
74335;SDS011;62755;-33.398;-70.572;2023-03-20T02:25:24;8.27;;;1.23;;
74335;SDS011;62755;-33.398;-70.572;2023-03-20T02:28:42;6.03;;;1.27;;
74335;SDS011;62755;-33.398;-70.572;2023-03-20T02:32:08;9.73;;;1.73;;
74335;SDS011;62755;-33.398;-70.572;2023-03-20T02:35:24;4.30;;;1.30;;
74335;SDS011;62755;-33.398;-70.572;2023-03-20T02:38:45;12.02;;;1.45;;
74335;SDS011;62755;-33.398;-70.572;2023-03-20T02:42:01;6.15;;;1.52;;
74335;SDS011;62755;-33.398;-70.572;2023-03-20T02:44:57;8.43;;;1.30;;
74335;SDS011;62755;-33.398;-70.572;2023-03-20T02:47:55;4.93;;;1.52;;
74335;SDS011;62755;-33.398;-70.572;2023-03-20T02:50:57;7.78;;;1.58;;
74335;SDS011;62755;-33.398;-70.572;2023-03-20T02:53:53;6.93;;;1.20;;
74335;SDS011;62755;-33.398;-70.572;2023-03-20T02:56:50;9.65;;;1.10;;
74335;SDS011;62755;-33.398;-70.572;2023-03-20T02:59:47;6.47;;;1.30;;
74335;SDS011;62755;-33.398;-70.572;2023-03-20T03:02:46;4.28;;;1.27;;
74335;SDS011;62755;-33.398;-70.572;2023-03-20T03:05:41;7.20;;;1.25;;
74335;SDS011;62755;-33.398;-70.572;2023-03-20T03:08:32;8.20;;;1.25;;
74335;SDS011;62755;-33.398;-70.572;2023-03-20T03:11:28;3.95;;;1.27;;
74335;SDS011;62755;-33.398;-70.572;2023-03-20T03:14:23;6.22;;;1.65;;
74335;SDS011;62755;-33.398;-70.572;2023-03-20T03:17:20;5.05;;;1.40;;
74335;SDS011;62755;-33.398;-70.572;2023-03-20T03:20:15;9.52;;;1.50;;
74335;SDS011;62755;-33.398;-70.572;2023-03-20T03:23:14;26.35;;;1.80;;
74335;SDS011;62755;-33.398;-70.572;2023-03-20T03:26:08;6.35;;;1.55;;
74335;SDS011;62755;-33.398;-70.572;2023-03-20T03:29:07;5.03;;;1.70;;
74335;SDS011;62755;-33.398;-70.572;2023-03-20T03:32:02;8.68;;;1.40;;
74335;SDS011;62755;-33.398;-70.572;2023-03-20T03:34:54;6.40;;;1.58;;
74335;SDS011;62755;-33.398;-70.572;2023-03-20T03:37:46;4.00;;;1.35;;
74335;SDS011;62755;-33.398;-70.572;2023-03-20T03:40:44;4.15;;;1.17;;
74335;SDS011;62755;-33.398;-70.572;2023-03-20T03:43:41;6.20;;;1.15;;
74335;SDS011;62755;-33.398;-70.572;2023-03-20T03:46:40;6.22;;;1.35;;
74335;SDS011;62755;-33.398;-70.572;2023-03-20T03:49:34;6.95;;;1.02;;
74335;SDS011;62755;-33.398;-70.572;2023-03-20T03:52:27;10.23;;;2.22;;
74335;SDS011;62755;-33.398;-70.572;2023-03-20T03:55:19;5.82;;;2.80;;
74335;SDS011;62755;-33.398;-70.572;2023-03-20T03:58:12;9.77;;;2.40;;
74335;SDS011;62755;-33.398;-70.572;2023-03-20T04:01:06;9.50;;;2.50;;
74335;SDS011;62755;-33.398;-70.572;2023-03-20T04:04:00;8.23;;;2.28;;
74335;SDS011;62755;-33.398;-70.572;2023-03-20T04:06:54;7.90;;;2.10;;
74335;SDS011;62755;-33.398;-70.572;2023-03-20T04:09:43;7.60;;;2.10;;
74335;SDS011;62755;-33.398;-70.572;2023-03-20T04:12:34;6.68;;;1.90;;
74335;SDS011;62755;-33.398;-70.572;2023-03-20T04:15:25;11.55;;;2.03;;
74335;SDS011;62755;-33.398;-70.572;2023-03-20T04:18:14;13.98;;;2.42;;
74335;SDS011;62755;-33.398;-70.572;2023-03-20T04:21:07;14.68;;;2.42;;
74335;SDS011;62755;-33.398;-70.572;2023-03-20T04:23:57;12.80;;;2.28;;
74335;SDS011;62755;-33.398;-70.572;2023-03-20T04:26:46;6.55;;;2.00;;
74335;SDS011;62755;-33.398;-70.572;2023-03-20T04:29:42;9.05;;;1.90;;
74335;SDS011;62755;-33.398;-70.572;2023-03-20T04:32:31;10.40;;;2.28;;
74335;SDS011;62755;-33.398;-70.572;2023-03-20T04:35:21;16.70;;;2.10;;
74335;SDS011;62755;-33.398;-70.572;2023-03-20T04:38:12;11.10;;;2.05;;
74335;SDS011;62755;-33.398;-70.572;2023-03-20T04:41:02;6.75;;;1.80;;
74335;SDS011;62755;-33.398;-70.572;2023-03-20T04:43:51;8.90;;;2.20;;
74335;SDS011;62755;-33.398;-70.572;2023-03-20T04:46:40;6.10;;;2.10;;
74335;SDS011;62755;-33.398;-70.572;2023-03-20T04:49:30;8.93;;;2.65;;
74335;SDS011;62755;-33.398;-70.572;2023-03-20T04:52:19;10.13;;;2.40;;
74335;SDS011;62755;-33.398;-70.572;2023-03-20T04:55:10;5.15;;;1.58;;
74335;SDS011;62755;-33.398;-70.572;2023-03-20T04:57:59;6.80;;;1.60;;
74335;SDS011;62755;-33.398;-70.572;2023-03-20T05:00:49;16.35;;;2.13;;
74335;SDS011;62755;-33.398;-70.572;2023-03-20T05:07:03;9.30;;;2.20;;
74335;SDS011;62755;-33.398;-70.572;2023-03-20T05:09:52;5.53;;;2.00;;
74335;SDS011;62755;-33.398;-70.572;2023-03-20T05:12:43;12.43;;;2.15;;
74335;SDS011;62755;-33.398;-70.572;2023-03-20T05:15:35;8.30;;;1.95;;
74335;SDS011;62755;-33.398;-70.572;2023-03-20T05:18:24;12.85;;;2.47;;
74335;SDS011;62755;-33.398;-70.572;2023-03-20T05:21:13;19.67;;;2.10;;
74335;SDS011;62755;-33.398;-70.572;2023-03-20T05:24:03;8.95;;;2.30;;
74335;SDS011;62755;-33.398;-70.572;2023-03-20T05:26:53;6.72;;;2.03;;
74335;SDS011;62755;-33.398;-70.572;2023-03-20T05:29:44;8.68;;;2.20;;
74335;SDS011;62755;-33.398;-70.572;2023-03-20T05:32:33;9.38;;;2.08;;
74335;SDS011;62755;-33.398;-70.572;2023-03-20T05:35:23;9.57;;;2.08;;
74335;SDS011;62755;-33.398;-70.572;2023-03-20T05:38:13;11.88;;;2.22;;
74335;SDS011;62755;-33.398;-70.572;2023-03-20T05:41:02;5.10;;;1.67;;
74335;SDS011;62755;-33.398;-70.572;2023-03-20T05:43:51;16.55;;;2.03;;
74335;SDS011;62755;-33.398;-70.572;2023-03-20T05:46:42;8.40;;;1.80;;
74335;SDS011;62755;-33.398;-70.572;2023-03-20T05:49:32;9.98;;;2.13;;
74335;SDS011;62755;-33.398;-70.572;2023-03-20T05:52:21;4.85;;;2.00;;
74335;SDS011;62755;-33.398;-70.572;2023-03-20T05:55:10;10.70;;;2.03;;
74335;SDS011;62755;-33.398;-70.572;2023-03-20T05:58:01;8.77;;;1.75;;
74335;SDS011;62755;-33.398;-70.572;2023-03-20T06:00:50;8.68;;;1.70;;
74335;SDS011;62755;-33.398;-70.572;2023-03-20T06:03:41;9.10;;;1.73;;
74335;SDS011;62755;-33.398;-70.572;2023-03-20T06:06:30;9.13;;;1.92;;
74335;SDS011;62755;-33.398;-70.572;2023-03-20T06:09:22;9.07;;;2.10;;
74335;SDS011;62755;-33.398;-70.572;2023-03-20T06:12:11;10.27;;;1.95;;
74335;SDS011;62755;-33.398;-70.572;2023-03-20T06:15:01;8.52;;;1.77;;
74335;SDS011;62755;-33.398;-70.572;2023-03-20T06:17:50;6.78;;;1.98;;
74335;SDS011;62755;-33.398;-70.572;2023-03-20T06:20:41;4.53;;;1.98;;
74335;SDS011;62755;-33.398;-70.572;2023-03-20T06:23:31;6.90;;;2.10;;
74335;SDS011;62755;-33.398;-70.572;2023-03-20T06:26:21;8.35;;;1.70;;
74335;SDS011;62755;-33.398;-70.572;2023-03-20T06:29:10;13.95;;;2.30;;
74335;SDS011;62755;-33.398;-70.572;2023-03-20T06:31:59;6.13;;;2.00;;
74335;SDS011;62755;-33.398;-70.572;2023-03-20T06:34:49;10.93;;;2.25;;
74335;SDS011;62755;-33.398;-70.572;2023-03-20T06:37:40;10.95;;;2.38;;
74335;SDS011;62755;-33.398;-70.572;2023-03-20T06:40:29;8.48;;;2.17;;
74335;SDS011;62755;-33.398;-70.572;2023-03-20T06:43:18;6.25;;;1.45;;
74335;SDS011;62755;-33.398;-70.572;2023-03-20T06:46:08;10.90;;;1.75;;
74335;SDS011;62755;-33.398;-70.572;2023-03-20T06:48:59;8.00;;;1.77;;
74335;SDS011;62755;-33.398;-70.572;2023-03-20T06:51:48;9.38;;;1.70;;
74335;SDS011;62755;-33.398;-70.572;2023-03-20T06:54:39;11.10;;;2.00;;
74335;SDS011;62755;-33.398;-70.572;2023-03-20T06:57:29;7.07;;;1.80;;
74335;SDS011;62755;-33.398;-70.572;2023-03-20T07:00:18;7.05;;;1.80;;
74335;SDS011;62755;-33.398;-70.572;2023-03-20T07:03:08;11.27;;;2.05;;
74335;SDS011;62755;-33.398;-70.572;2023-03-20T07:05:57;5.68;;;1.60;;
74335;SDS011;62755;-33.398;-70.572;2023-03-20T07:08:47;14.68;;;1.98;;
74335;SDS011;62755;-33.398;-70.572;2023-03-20T07:11:39;8.55;;;2.03;;
74335;SDS011;62755;-33.398;-70.572;2023-03-20T07:14:28;10.18;;;1.67;;
74335;SDS011;62755;-33.398;-70.572;2023-03-20T07:17:18;10.45;;;2.20;;
74335;SDS011;62755;-33.398;-70.572;2023-03-20T07:20:08;9.10;;;1.70;;
74335;SDS011;62755;-33.398;-70.572;2023-03-20T07:22:58;8.15;;;1.80;;
74335;SDS011;62755;-33.398;-70.572;2023-03-20T07:25:47;15.75;;;2.05;;
74335;SDS011;62755;-33.398;-70.572;2023-03-20T07:28:38;5.75;;;1.70;;
74335;SDS011;62755;-33.398;-70.572;2023-03-20T07:31:28;8.95;;;1.65;;
74335;SDS011;62755;-33.398;-70.572;2023-03-20T07:34:17;8.90;;;1.85;;
74335;SDS011;62755;-33.398;-70.572;2023-03-20T07:37:08;13.95;;;2.00;;
74335;SDS011;62755;-33.398;-70.572;2023-03-20T07:39:57;8.95;;;2.28;;
74335;SDS011;62755;-33.398;-70.572;2023-03-20T07:42:46;9.63;;;1.80;;
74335;SDS011;62755;-33.398;-70.572;2023-03-20T07:45:37;5.53;;;1.75;;
74335;SDS011;62755;-33.398;-70.572;2023-03-20T07:48:27;8.52;;;1.80;;
74335;SDS011;62755;-33.398;-70.572;2023-03-20T07:51:16;12.93;;;2.33;;
74335;SDS011;62755;-33.398;-70.572;2023-03-20T07:54:05;11.45;;;2.00;;
74335;SDS011;62755;-33.398;-70.572;2023-03-20T07:56:55;7.85;;;1.90;;
74335;SDS011;62755;-33.398;-70.572;2023-03-20T07:59:44;6.57;;;1.38;;
74335;SDS011;62755;-33.398;-70.572;2023-03-20T08:02:35;4.90;;;1.50;;
74335;SDS011;62755;-33.398;-70.572;2023-03-20T08:05:25;9.35;;;1.67;;
74335;SDS011;62755;-33.398;-70.572;2023-03-20T08:08:14;9.40;;;1.80;;
74335;SDS011;62755;-33.398;-70.572;2023-03-20T08:11:04;10.07;;;1.52;;
74335;SDS011;62755;-33.398;-70.572;2023-03-20T08:13:53;10.30;;;2.00;;
74335;SDS011;62755;-33.398;-70.572;2023-03-20T08:16:43;9.18;;;2.08;;
74335;SDS011;62755;-33.398;-70.572;2023-03-20T08:19:34;7.03;;;1.80;;
74335;SDS011;62755;-33.398;-70.572;2023-03-20T08:22:23;8.18;;;1.80;;
74335;SDS011;62755;-33.398;-70.572;2023-03-20T08:25:13;10.85;;;1.90;;
74335;SDS011;62755;-33.398;-70.572;2023-03-20T08:28:02;9.98;;;2.17;;
74335;SDS011;62755;-33.398;-70.572;2023-03-20T08:30:51;7.47;;;1.67;;
74335;SDS011;62755;-33.398;-70.572;2023-03-20T08:33:41;10.23;;;1.60;;
74335;SDS011;62755;-33.398;-70.572;2023-03-20T08:36:32;7.03;;;1.70;;
74335;SDS011;62755;-33.398;-70.572;2023-03-20T08:39:34;6.22;;;1.73;;
74335;SDS011;62755;-33.398;-70.572;2023-03-20T08:42:24;8.60;;;1.70;;
74335;SDS011;62755;-33.398;-70.572;2023-03-20T08:45:13;11.90;;;1.88;;
74335;SDS011;62755;-33.398;-70.572;2023-03-20T08:48:03;7.43;;;1.63;;
74335;SDS011;62755;-33.398;-70.572;2023-03-20T08:50:52;6.50;;;1.75;;
74335;SDS011;62755;-33.398;-70.572;2023-03-20T08:53:43;8.32;;;1.98;;
74335;SDS011;62755;-33.398;-70.572;2023-03-20T08:56:33;5.13;;;1.70;;
74335;SDS011;62755;-33.398;-70.572;2023-03-20T08:59:22;6.03;;;1.65;;
74335;SDS011;62755;-33.398;-70.572;2023-03-20T09:02:12;6.80;;;1.58;;
74335;SDS011;62755;-33.398;-70.572;2023-03-20T09:05:01;7.45;;;1.77;;
74335;SDS011;62755;-33.398;-70.572;2023-03-20T09:07:51;5.57;;;1.95;;
74335;SDS011;62755;-33.398;-70.572;2023-03-20T09:10:42;11.20;;;2.42;;
74335;SDS011;62755;-33.398;-70.572;2023-03-20T09:13:33;11.35;;;2.63;;
74335;SDS011;62755;-33.398;-70.572;2023-03-20T09:16:23;8.07;;;2.30;;
74335;SDS011;62755;-33.398;-70.572;2023-03-20T09:19:12;6.30;;;1.77;;
74335;SDS011;62755;-33.398;-70.572;2023-03-20T09:22:02;9.57;;;2.00;;
74335;SDS011;62755;-33.398;-70.572;2023-03-20T09:24:51;8.75;;;2.75;;
74335;SDS011;62755;-33.398;-70.572;2023-03-20T09:27:42;6.35;;;1.80;;
74335;SDS011;62755;-33.398;-70.572;2023-03-20T09:30:31;6.85;;;1.92;;
74335;SDS011;62755;-33.398;-70.572;2023-03-20T09:33:20;10.13;;;1.77;;
74335;SDS011;62755;-33.398;-70.572;2023-03-20T09:36:10;13.13;;;1.90;;
74335;SDS011;62755;-33.398;-70.572;2023-03-20T09:39:00;5.05;;;2.00;;
74335;SDS011;62755;-33.398;-70.572;2023-03-20T09:41:50;4.25;;;1.70;;
74335;SDS011;62755;-33.398;-70.572;2023-03-20T09:44:44;6.25;;;1.73;;
74335;SDS011;62755;-33.398;-70.572;2023-03-20T09:47:43;8.90;;;1.77;;
74335;SDS011;62755;-33.398;-70.572;2023-03-20T09:50:40;12.70;;;1.90;;
74335;SDS011;62755;-33.398;-70.572;2023-03-20T09:53:35;11.13;;;2.35;;
74335;SDS011;62755;-33.398;-70.572;2023-03-20T09:56:28;12.48;;;2.20;;
74335;SDS011;62755;-33.398;-70.572;2023-03-20T09:59:18;7.85;;;1.90;;
74335;SDS011;62755;-33.398;-70.572;2023-03-20T10:02:13;13.07;;;2.05;;
74335;SDS011;62755;-33.398;-70.572;2023-03-20T10:05:12;6.13;;;1.42;;
74335;SDS011;62755;-33.398;-70.572;2023-03-20T10:08:10;9.68;;;1.98;;
74335;SDS011;62755;-33.398;-70.572;2023-03-20T10:11:03;9.48;;;1.92;;
74335;SDS011;62755;-33.398;-70.572;2023-03-20T10:14:06;11.43;;;2.00;;
74335;SDS011;62755;-33.398;-70.572;2023-03-20T10:17:29;11.13;;;2.13;;
74335;SDS011;62755;-33.398;-70.572;2023-03-20T10:20:28;11.07;;;2.55;;
74335;SDS011;62755;-33.398;-70.572;2023-03-20T10:23:23;11.82;;;2.90;;
74335;SDS011;62755;-33.398;-70.572;2023-03-20T10:29:12;11.07;;;3.08;;
74335;SDS011;62755;-33.398;-70.572;2023-03-20T10:32:11;15.88;;;2.97;;
74335;SDS011;62755;-33.398;-70.572;2023-03-20T10:35:16;14.63;;;2.60;;
74335;SDS011;62755;-33.398;-70.572;2023-03-20T10:38:12;11.95;;;2.88;;
74335;SDS011;62755;-33.398;-70.572;2023-03-20T10:41:12;17.30;;;3.47;;
74335;SDS011;62755;-33.398;-70.572;2023-03-20T10:44:04;23.77;;;4.45;;
74335;SDS011;62755;-33.398;-70.572;2023-03-20T10:47:02;18.27;;;3.40;;
74335;SDS011;62755;-33.398;-70.572;2023-03-20T10:49:55;18.27;;;3.92;;
74335;SDS011;62755;-33.398;-70.572;2023-03-20T10:52:48;20.65;;;3.15;;
74335;SDS011;62755;-33.398;-70.572;2023-03-20T10:55:42;17.40;;;3.92;;
74335;SDS011;62755;-33.398;-70.572;2023-03-20T10:58:33;22.35;;;4.63;;
74335;SDS011;62755;-33.398;-70.572;2023-03-20T11:01:26;18.52;;;4.03;;
74335;SDS011;62755;-33.398;-70.572;2023-03-20T11:04:15;16.70;;;4.13;;
74335;SDS011;62755;-33.398;-70.572;2023-03-20T11:07:06;23.73;;;3.20;;
74335;SDS011;62755;-33.398;-70.572;2023-03-20T11:10:13;9.60;;;2.58;;
74335;SDS011;62755;-33.398;-70.572;2023-03-20T11:13:11;9.75;;;2.78;;
74335;SDS011;62755;-33.398;-70.572;2023-03-20T11:16:11;16.65;;;3.83;;
74335;SDS011;62755;-33.398;-70.572;2023-03-20T11:19:09;18.67;;;3.83;;
74335;SDS011;62755;-33.398;-70.572;2023-03-20T11:22:00;19.13;;;3.25;;
74335;SDS011;62755;-33.398;-70.572;2023-03-20T11:27:48;19.55;;;3.53;;
74335;SDS011;62755;-33.398;-70.572;2023-03-20T11:30:39;19.60;;;3.97;;
74335;SDS011;62755;-33.398;-70.572;2023-03-20T11:33:28;15.25;;;3.83;;
74335;SDS011;62755;-33.398;-70.572;2023-03-20T11:36:23;19.95;;;4.45;;
74335;SDS011;62755;-33.398;-70.572;2023-03-20T11:39:15;15.90;;;4.78;;
74335;SDS011;62755;-33.398;-70.572;2023-03-20T11:42:20;26.63;;;4.97;;
74335;SDS011;62755;-33.398;-70.572;2023-03-20T11:45:15;19.33;;;3.70;;
74335;SDS011;62755;-33.398;-70.572;2023-03-20T11:48:05;21.52;;;4.35;;
74335;SDS011;62755;-33.398;-70.572;2023-03-20T11:51:01;21.58;;;3.72;;
74335;SDS011;62755;-33.398;-70.572;2023-03-20T11:53:55;35.38;;;4.47;;
74335;SDS011;62755;-33.398;-70.572;2023-03-20T11:56:52;14.70;;;3.65;;
74335;SDS011;62755;-33.398;-70.572;2023-03-20T11:59:42;21.92;;;3.45;;
74335;SDS011;62755;-33.398;-70.572;2023-03-20T12:02:33;19.25;;;4.25;;
74335;SDS011;62755;-33.398;-70.572;2023-03-20T12:05:28;23.75;;;4.13;;
74335;SDS011;62755;-33.398;-70.572;2023-03-20T12:08:19;19.58;;;4.63;;
74335;SDS011;62755;-33.398;-70.572;2023-03-20T12:11:17;13.52;;;3.25;;
74335;SDS011;62755;-33.398;-70.572;2023-03-20T12:14:21;14.68;;;3.63;;
74335;SDS011;62755;-33.398;-70.572;2023-03-20T12:17:19;18.63;;;4.55;;
74335;SDS011;62755;-33.398;-70.572;2023-03-20T12:20:31;22.85;;;3.78;;
74335;SDS011;62755;-33.398;-70.572;2023-03-20T12:23:26;21.10;;;4.10;;
74335;SDS011;62755;-33.398;-70.572;2023-03-20T12:26:21;17.23;;;4.22;;
74335;SDS011;62755;-33.398;-70.572;2023-03-20T12:29:19;22.98;;;4.88;;
74335;SDS011;62755;-33.398;-70.572;2023-03-20T12:32:15;18.42;;;4.20;;
74335;SDS011;62755;-33.398;-70.572;2023-03-20T12:35:10;28.70;;;6.13;;
74335;SDS011;62755;-33.398;-70.572;2023-03-20T12:38:07;27.77;;;6.80;;
74335;SDS011;62755;-33.398;-70.572;2023-03-20T12:41:10;23.38;;;5.35;;
74335;SDS011;62755;-33.398;-70.572;2023-03-20T12:44:09;16.42;;;4.57;;
74335;SDS011;62755;-33.398;-70.572;2023-03-20T12:47:12;21.33;;;4.50;;
74335;SDS011;62755;-33.398;-70.572;2023-03-20T12:50:15;17.17;;;4.85;;
74335;SDS011;62755;-33.398;-70.572;2023-03-20T12:56:29;18.52;;;4.25;;
74335;SDS011;62755;-33.398;-70.572;2023-03-20T12:59:35;17.95;;;3.40;;
74335;SDS011;62755;-33.398;-70.572;2023-03-20T13:02:33;11.90;;;3.20;;
74335;SDS011;62755;-33.398;-70.572;2023-03-20T13:05:36;15.80;;;3.70;;
74335;SDS011;62755;-33.398;-70.572;2023-03-20T13:08:41;23.27;;;3.53;;
74335;SDS011;62755;-33.398;-70.572;2023-03-20T13:11:40;15.32;;;3.63;;
74335;SDS011;62755;-33.398;-70.572;2023-03-20T13:14:36;12.25;;;3.30;;
74335;SDS011;62755;-33.398;-70.572;2023-03-20T13:17:31;19.05;;;3.58;;
74335;SDS011;62755;-33.398;-70.572;2023-03-20T13:23:19;13.95;;;3.42;;
74335;SDS011;62755;-33.398;-70.572;2023-03-20T13:26:15;18.25;;;3.10;;
74335;SDS011;62755;-33.398;-70.572;2023-03-20T13:29:16;10.00;;;3.20;;
74335;SDS011;62755;-33.398;-70.572;2023-03-20T13:32:13;16.23;;;3.63;;
74335;SDS011;62755;-33.398;-70.572;2023-03-20T13:35:22;16.08;;;3.58;;
74335;SDS011;62755;-33.398;-70.572;2023-03-20T13:38:23;11.15;;;3.33;;
74335;SDS011;62755;-33.398;-70.572;2023-03-20T13:41:19;16.52;;;3.03;;
74335;SDS011;62755;-33.398;-70.572;2023-03-20T13:44:11;6.38;;;2.53;;
74335;SDS011;62755;-33.398;-70.572;2023-03-20T13:47:07;19.17;;;2.88;;
74335;SDS011;62755;-33.398;-70.572;2023-03-20T13:50:03;16.98;;;2.40;;
74335;SDS011;62755;-33.398;-70.572;2023-03-20T13:53:07;14.23;;;2.60;;
74335;SDS011;62755;-33.398;-70.572;2023-03-20T13:56:08;8.85;;;2.63;;
74335;SDS011;62755;-33.398;-70.572;2023-03-20T14:02:40;17.70;;;3.58;;
74335;SDS011;62755;-33.398;-70.572;2023-03-20T14:05:42;12.60;;;3.30;;
74335;SDS011;62755;-33.398;-70.572;2023-03-20T14:08:33;17.13;;;3.63;;
74335;SDS011;62755;-33.398;-70.572;2023-03-20T14:11:27;14.68;;;2.92;;
74335;SDS011;62755;-33.398;-70.572;2023-03-20T14:14:23;17.00;;;3.22;;
74335;SDS011;62755;-33.398;-70.572;2023-03-20T14:17:19;12.82;;;2.97;;
74335;SDS011;62755;-33.398;-70.572;2023-03-20T14:20:12;20.25;;;3.80;;
74335;SDS011;62755;-33.398;-70.572;2023-03-20T14:23:15;14.02;;;3.40;;
74335;SDS011;62755;-33.398;-70.572;2023-03-20T14:26:08;10.98;;;2.80;;
74335;SDS011;62755;-33.398;-70.572;2023-03-20T14:29:19;14.43;;;2.75;;
74335;SDS011;62755;-33.398;-70.572;2023-03-20T14:32:28;16.35;;;3.35;;
74335;SDS011;62755;-33.398;-70.572;2023-03-20T14:35:22;11.10;;;3.08;;
74335;SDS011;62755;-33.398;-70.572;2023-03-20T14:38:19;8.00;;;3.78;;
74335;SDS011;62755;-33.398;-70.572;2023-03-20T14:41:14;17.40;;;2.80;;
74335;SDS011;62755;-33.398;-70.572;2023-03-20T14:44:16;10.30;;;3.00;;
74335;SDS011;62755;-33.398;-70.572;2023-03-20T14:47:20;13.55;;;3.10;;
74335;SDS011;62755;-33.398;-70.572;2023-03-20T14:50:21;10.52;;;3.35;;
74335;SDS011;62755;-33.398;-70.572;2023-03-20T14:53:15;16.48;;;3.70;;
74335;SDS011;62755;-33.398;-70.572;2023-03-20T14:56:07;17.85;;;3.05;;
74335;SDS011;62755;-33.398;-70.572;2023-03-20T14:59:02;11.10;;;3.28;;
74335;SDS011;62755;-33.398;-70.572;2023-03-20T15:01:53;16.08;;;3.30;;
74335;SDS011;62755;-33.398;-70.572;2023-03-20T15:04:47;8.73;;;3.10;;
74335;SDS011;62755;-33.398;-70.572;2023-03-20T15:07:37;15.98;;;3.50;;
74335;SDS011;62755;-33.398;-70.572;2023-03-20T15:10:27;20.33;;;3.90;;
74335;SDS011;62755;-33.398;-70.572;2023-03-20T15:13:17;12.38;;;3.42;;
74335;SDS011;62755;-33.398;-70.572;2023-03-20T15:16:07;12.70;;;3.60;;
74335;SDS011;62755;-33.398;-70.572;2023-03-20T15:18:58;8.13;;;3.05;;
74335;SDS011;62755;-33.398;-70.572;2023-03-20T15:21:51;16.35;;;3.05;;
74335;SDS011;62755;-33.398;-70.572;2023-03-20T15:24:41;13.10;;;2.78;;
74335;SDS011;62755;-33.398;-70.572;2023-03-20T15:27:37;12.80;;;3.47;;
74335;SDS011;62755;-33.398;-70.572;2023-03-20T15:30:27;13.77;;;3.13;;
74335;SDS011;62755;-33.398;-70.572;2023-03-20T15:33:21;18.00;;;3.35;;
74335;SDS011;62755;-33.398;-70.572;2023-03-20T15:36:14;11.57;;;2.80;;
74335;SDS011;62755;-33.398;-70.572;2023-03-20T15:39:10;16.52;;;3.50;;
74335;SDS011;62755;-33.398;-70.572;2023-03-20T15:42:01;11.90;;;3.35;;
74335;SDS011;62755;-33.398;-70.572;2023-03-20T15:44:52;22.08;;;3.70;;
74335;SDS011;62755;-33.398;-70.572;2023-03-20T15:47:42;11.93;;;3.45;;
74335;SDS011;62755;-33.398;-70.572;2023-03-20T15:50:31;18.17;;;4.82;;
74335;SDS011;62755;-33.398;-70.572;2023-03-20T15:53:24;17.52;;;4.80;;
74335;SDS011;62755;-33.398;-70.572;2023-03-20T15:56:19;18.05;;;4.45;;
74335;SDS011;62755;-33.398;-70.572;2023-03-20T15:59:14;18.77;;;4.13;;
74335;SDS011;62755;-33.398;-70.572;2023-03-20T16:02:07;15.48;;;5.20;;
74335;SDS011;62755;-33.398;-70.572;2023-03-20T16:05:00;17.63;;;5.30;;
74335;SDS011;62755;-33.398;-70.572;2023-03-20T16:07:50;20.38;;;5.15;;
74335;SDS011;62755;-33.398;-70.572;2023-03-20T16:10:40;20.08;;;5.47;;
74335;SDS011;62755;-33.398;-70.572;2023-03-20T16:13:32;22.27;;;5.70;;
74335;SDS011;62755;-33.398;-70.572;2023-03-20T16:16:24;21.92;;;6.38;;
74335;SDS011;62755;-33.398;-70.572;2023-03-20T16:19:19;24.65;;;6.43;;
74335;SDS011;62755;-33.398;-70.572;2023-03-20T16:22:11;18.83;;;6.03;;
74335;SDS011;62755;-33.398;-70.572;2023-03-20T16:25:08;17.48;;;6.32;;
74335;SDS011;62755;-33.398;-70.572;2023-03-20T16:28:02;20.38;;;5.57;;
74335;SDS011;62755;-33.398;-70.572;2023-03-20T16:30:54;18.08;;;5.40;;
74335;SDS011;62755;-33.398;-70.572;2023-03-20T16:33:57;21.20;;;5.93;;
74335;SDS011;62755;-33.398;-70.572;2023-03-20T16:36:53;16.70;;;5.50;;
74335;SDS011;62755;-33.398;-70.572;2023-03-20T16:39:44;15.63;;;5.32;;
74335;SDS011;62755;-33.398;-70.572;2023-03-20T16:42:33;37.10;;;6.63;;
74335;SDS011;62755;-33.398;-70.572;2023-03-20T16:45:27;20.75;;;6.10;;
74335;SDS011;62755;-33.398;-70.572;2023-03-20T16:48:26;23.67;;;6.82;;
74335;SDS011;62755;-33.398;-70.572;2023-03-20T16:51:19;36.92;;;7.53;;
74335;SDS011;62755;-33.398;-70.572;2023-03-20T16:54:12;24.58;;;5.80;;